Time;durP1;ratioP1;P1;durP2;ratioP2;P2;SDS_P1;SDS_P2;PMS_P1;PMS_P2;Temp;Humidity;BMP_temperature;BMP_pressure;BME280_temperature;BME280_humidity;BME280_pressure;Samples;Min_cycle;Max_cycle;Signal;HPM_P1;HPM_P2
2024/01/19 00:01:22;;;;;;;6.15;2.38;;;;;;;;;;5024520;28;42642;-68
2024/01/19 00:03:50;;;;;;;4.90;3.03;;;;;;;;;;5023911;28;41127;-68
2024/01/19 00:06:18;;;;;;;4.47;2.85;;;;;;;;;;5026453;28;41767;-68
2024/01/19 00:08:46;;;;;;;8.82;3.00;;;;;;;;;;5023606;28;40997;-68
2024/01/19 00:11:15;;;;;;;4.97;2.70;;;;;;;;;;5024957;28;42419;-69
2024/01/19 00:13:43;;;;;;;4.80;2.58;;;;;;;;;;5023455;28;40661;-68
2024/01/19 00:16:11;;;;;;;6.13;2.55;;;;;;;;;;5022630;28;41770;-66
2024/01/19 00:18:40;;;;;;;9.05;2.95;;;;;;;;;;5022601;28;41634;-65
2024/01/19 00:21:08;;;;;;;6.22;2.42;;;;;;;;;;5023594;28;42023;-64
2024/01/19 00:23:36;;;;;;;7.55;2.50;;;;;;;;;;5016478;28;41974;-64
2024/01/19 00:26:04;;;;;;;5.07;2.65;;;;;;;;;;5022784;28;42743;-64
2024/01/19 00:28:32;;;;;;;5.50;2.55;;;;;;;;;;5021167;28;40861;-64
2024/01/19 00:31:00;;;;;;;4.78;2.42;;;;;;;;;;5018723;28;41934;-64
2024/01/19 00:33:28;;;;;;;8.07;3.30;;;;;;;;;;5020924;28;42092;-64
2024/01/19 00:35:57;;;;;;;5.20;2.60;;;;;;;;;;5014534;28;41658;-65
2024/01/19 00:38:25;;;;;;;4.70;2.50;;;;;;;;;;5022245;28;41864;-64
2024/01/19 00:40:53;;;;;;;7.55;2.20;;;;;;;;;;5023379;28;41504;-64
2024/01/19 00:43:21;;;;;;;5.05;2.13;;;;;;;;;;5012715;28;42607;-64
2024/01/19 00:45:50;;;;;;;3.20;2.17;;;;;;;;;;5026189;28;43769;-64
2024/01/19 00:48:18;;;;;;;6.70;2.40;;;;;;;;;;5025202;28;42247;-64
2024/01/19 00:50:46;;;;;;;4.13;2.40;;;;;;;;;;5025018;28;41147;-64
2024/01/19 00:53:15;;;;;;;6.30;2.25;;;;;;;;;;5024808;28;41514;-64
2024/01/19 00:55:43;;;;;;;4.55;2.47;;;;;;;;;;5024978;28;42320;-64
2024/01/19 00:58:11;;;;;;;5.15;2.10;;;;;;;;;;5022745;28;42123;-64
2024/01/19 01:00:39;;;;;;;4.50;2.22;;;;;;;;;;5022442;28;41514;-62
2024/01/19 01:03:07;;;;;;;3.83;2.20;;;;;;;;;;5018741;28;41754;-62
2024/01/19 01:05:35;;;;;;;5.50;2.47;;;;;;;;;;5022951;28;41947;-62
2024/01/19 01:08:04;;;;;;;5.47;2.50;;;;;;;;;;5021380;28;41097;-62
2024/01/19 01:10:33;;;;;;;3.58;2.17;;;;;;;;;;5018606;28;41577;-62
2024/01/19 01:13:02;;;;;;;4.75;2.40;;;;;;;;;;5018269;28;42048;-62
2024/01/19 01:15:30;;;;;;;6.25;2.40;;;;;;;;;;5012890;28;40934;-62
2024/01/19 01:17:58;;;;;;;3.67;2.45;;;;;;;;;;5013190;28;42234;-63
2024/01/19 01:20:26;;;;;;;5.28;2.13;;;;;;;;;;5020023;28;41186;-63
2024/01/19 01:22:54;;;;;;;5.25;2.50;;;;;;;;;;5008088;28;41251;-64
2024/01/19 01:25:22;;;;;;;2.80;2.13;;;;;;;;;;5009639;28;42448;-61
2024/01/19 01:27:51;;;;;;;3.95;2.20;;;;;;;;;;5024524;28;42301;-62
2024/01/19 01:30:20;;;;;;;4.53;2.17;;;;;;;;;;5023895;28;41685;-62
2024/01/19 01:32:48;;;;;;;4.28;2.50;;;;;;;;;;5018357;28;42214;-64
2024/01/19 01:35:16;;;;;;;4.75;2.10;;;;;;;;;;5013759;28;41314;-63
2024/01/19 01:37:44;;;;;;;2.72;2.00;;;;;;;;;;5020485;28;41267;-61
2024/01/19 01:40:12;;;;;;;4.60;2.33;;;;;;;;;;5014658;28;41146;-62
2024/01/19 01:42:40;;;;;;;4.70;2.40;;;;;;;;;;5014326;28;41357;-62
2024/01/19 01:45:09;;;;;;;3.22;2.05;;;;;;;;;;5018034;28;42154;-62
2024/01/19 01:47:37;;;;;;;6.30;2.28;;;;;;;;;;5023291;28;42226;-61
2024/01/19 01:50:06;;;;;;;3.30;1.92;;;;;;;;;;5012269;28;41483;-62
2024/01/19 01:52:34;;;;;;;4.90;2.38;;;;;;;;;;5019338;28;42121;-62
2024/01/19 01:55:02;;;;;;;2.45;1.80;;;;;;;;;;5024593;28;41570;-62
2024/01/19 01:57:30;;;;;;;3.40;2.25;;;;;;;;;;5023719;28;42241;-62
2024/01/19 01:59:58;;;;;;;4.10;1.98;;;;;;;;;;5022453;28;42738;-62
2024/01/19 02:02:28;;;;;;;3.30;1.95;;;;;;;;;;5021903;28;41500;-62
2024/01/19 02:04:56;;;;;;;3.78;1.95;;;;;;;;;;5012193;28;41604;-64
2024/01/19 02:07:23;;;;;;;2.30;1.85;;;;;;;;;;5016496;28;41090;-63
2024/01/19 02:09:52;;;;;;;3.45;2.13;;;;;;;;;;5022457;28;41072;-62
2024/01/19 02:12:20;;;;;;;2.75;1.83;;;;;;;;;;5024913;28;42435;-62
2024/01/19 02:14:49;;;;;;;3.00;1.90;;;;;;;;;;5021646;28;41328;-63
2024/01/19 02:17:17;;;;;;;4.60;2.45;;;;;;;;;;5022524;28;41724;-63
2024/01/19 02:19:46;;;;;;;2.90;2.10;;;;;;;;;;5019802;28;41479;-63
2024/01/19 02:22:14;;;;;;;3.42;1.67;;;;;;;;;;5022308;28;41261;-63
2024/01/19 02:24:43;;;;;;;2.38;1.60;;;;;;;;;;5023021;28;43281;-63
2024/01/19 02:27:11;;;;;;;3.33;1.42;;;;;;;;;;5023615;28;42329;-64
2024/01/19 02:29:39;;;;;;;5.05;2.08;;;;;;;;;;5015628;28;41886;-63
2024/01/19 02:32:07;;;;;;;4.15;1.65;;;;;;;;;;5013278;28;41286;-63
2024/01/19 02:34:35;;;;;;;3.05;1.67;;;;;;;;;;5024176;28;42165;-63
2024/01/19 02:37:03;;;;;;;2.30;1.52;;;;;;;;;;5021180;28;40570;-63
2024/01/19 02:39:31;;;;;;;3.30;1.58;;;;;;;;;;5024778;28;43011;-63
2024/01/19 02:42:00;;;;;;;2.83;1.55;;;;;;;;;;5023306;28;42328;-63
2024/01/19 02:44:28;;;;;;;2.58;1.50;;;;;;;;;;5024928;28;41665;-63
2024/01/19 02:46:56;;;;;;;2.38;1.52;;;;;;;;;;5023670;28;41960;-63
2024/01/19 02:49:24;;;;;;;2.20;1.55;;;;;;;;;;5022608;28;41530;-63
2024/01/19 02:51:52;;;;;;;2.67;1.40;;;;;;;;;;5023624;28;42050;-63
2024/01/19 02:54:20;;;;;;;2.10;1.52;;;;;;;;;;5022449;28;42307;-63
2024/01/19 02:56:48;;;;;;;2.53;1.42;;;;;;;;;;5011531;28;42680;-63
2024/01/19 02:59:18;;;;;;;2.72;1.50;;;;;;;;;;5020643;28;42264;-63
2024/01/19 03:01:46;;;;;;;3.30;1.73;;;;;;;;;;5024023;28;41208;-63
2024/01/19 03:04:14;;;;;;;2.17;1.33;;;;;;;;;;5020521;28;42697;-63
2024/01/19 03:06:43;;;;;;;2.08;1.50;;;;;;;;;;5020150;28;20309;-63
2024/01/19 03:09:11;;;;;;;3.13;1.40;;;;;;;;;;5014917;28;42645;-64
2024/01/19 03:14:27;;;;;;;2.17;1.23;;;;;;;;;;5016605;28;42265;-63
2024/01/19 03:16:55;;;;;;;2.03;1.40;;;;;;;;;;5023030;28;41682;-63
2024/01/19 03:19:23;;;;;;;2.65;1.33;;;;;;;;;;5023303;28;43147;-63
2024/01/19 03:21:51;;;;;;;2.75;1.40;;;;;;;;;;5023454;28;41242;-63
2024/01/19 03:24:19;;;;;;;3.00;1.25;;;;;;;;;;5025411;28;41658;-63
2024/01/19 03:26:46;;;;;;;2.03;1.20;;;;;;;;;;5025265;28;42769;-63
2024/01/19 03:29:15;;;;;;;1.90;1.15;;;;;;;;;;5023190;28;40065;-63
2024/01/19 03:31:45;;;;;;;2.00;1.23;;;;;;;;;;5025874;28;42477;-63
2024/01/19 03:34:13;;;;;;;2.55;1.35;;;;;;;;;;5027428;28;40805;-63
2024/01/19 03:36:41;;;;;;;2.28;1.15;;;;;;;;;;5027059;28;42664;-63
2024/01/19 03:39:09;;;;;;;2.40;1.23;;;;;;;;;;5023463;28;41424;-63
2024/01/19 03:41:37;;;;;;;2.35;1.08;;;;;;;;;;5027139;28;41387;-63
2024/01/19 03:44:05;;;;;;;2.45;1.30;;;;;;;;;;5023408;28;41104;-63
2024/01/19 03:46:33;;;;;;;2.00;1.20;;;;;;;;;;5012522;28;42656;-63
2024/01/19 03:49:03;;;;;;;1.95;1.20;;;;;;;;;;5009512;28;41144;-63
2024/01/19 03:51:31;;;;;;;1.67;1.13;;;;;;;;;;5026565;28;41566;-63
2024/01/19 03:53:59;;;;;;;1.95;1.20;;;;;;;;;;5026242;28;41471;-63
2024/01/19 03:56:27;;;;;;;1.75;1.20;;;;;;;;;;5013985;28;42270;-63
2024/01/19 03:58:57;;;;;;;2.10;1.30;;;;;;;;;;5012859;28;42239;-63
2024/01/19 04:01:25;;;;;;;1.98;1.20;;;;;;;;;;5021369;28;39162;-63
2024/01/19 04:03:53;;;;;;;1.77;1.08;;;;;;;;;;5026544;28;41681;-63
2024/01/19 04:06:22;;;;;;;2.20;1.13;;;;;;;;;;5026358;28;41589;-63
2024/01/19 04:08:50;;;;;;;2.45;1.05;;;;;;;;;;5012796;28;40752;-63
2024/01/19 04:11:19;;;;;;;2.08;1.08;;;;;;;;;;5026503;28;41511;-63
2024/01/19 04:13:47;;;;;;;2.58;0.90;;;;;;;;;;5023886;28;40781;-63
2024/01/19 04:16:15;;;;;;;2.70;1.33;;;;;;;;;;5026934;28;41868;-64
2024/01/19 04:18:43;;;;;;;1.80;1.23;;;;;;;;;;5025758;28;41894;-63
2024/01/19 04:21:11;;;;;;;5.25;1.40;;;;;;;;;;5024766;28;41288;-64
2024/01/19 04:23:40;;;;;;;3.83;2.00;;;;;;;;;;5026087;28;42245;-63
2024/01/19 04:26:08;;;;;;;2.20;1.40;;;;;;;;;;5019205;28;43977;-63
2024/01/19 04:28:36;;;;;;;2.50;1.65;;;;;;;;;;5024128;28;42140;-62
2024/01/19 04:31:04;;;;;;;1.80;1.23;;;;;;;;;;5025818;28;41914;-62
2024/01/19 04:33:32;;;;;;;2.03;1.20;;;;;;;;;;5020315;28;41853;-63
2024/01/19 04:36:00;;;;;;;2.28;1.35;;;;;;;;;;5015335;28;41517;-63
2024/01/19 04:38:28;;;;;;;2.38;1.20;;;;;;;;;;5026279;28;42681;-63
2024/01/19 04:40:57;;;;;;;2.03;1.60;;;;;;;;;;5021567;28;42464;-63
2024/01/19 04:43:25;;;;;;;1.77;1.00;;;;;;;;;;5015962;28;41956;-63
2024/01/19 04:45:53;;;;;;;2.15;1.10;;;;;;;;;;5018762;28;42770;-63
2024/01/19 04:48:21;;;;;;;2.70;1.25;;;;;;;;;;5008690;28;42311;-63
2024/01/19 04:50:49;;;;;;;2.92;1.10;;;;;;;;;;5020685;28;41600;-63
2024/01/19 04:53:17;;;;;;;3.08;1.23;;;;;;;;;;5018957;28;41956;-63
2024/01/19 04:55:45;;;;;;;2.30;1.52;;;;;;;;;;5018839;28;42340;-63
2024/01/19 04:58:14;;;;;;;2.33;1.20;;;;;;;;;;5025428;28;43236;-62
2024/01/19 05:00:42;;;;;;;1.67;1.00;;;;;;;;;;5023195;28;41318;-63
2024/01/19 05:03:10;;;;;;;2.85;1.13;;;;;;;;;;5015811;28;41592;-63
2024/01/19 05:05:38;;;;;;;2.38;1.15;;;;;;;;;;5014416;28;43206;-63
2024/01/19 05:08:06;;;;;;;1.98;1.00;;;;;;;;;;5017190;28;41329;-63
2024/01/19 05:10:34;;;;;;;1.17;0.90;;;;;;;;;;5013309;28;41441;-63
2024/01/19 05:13:03;;;;;;;2.90;1.40;;;;;;;;;;5017962;28;41893;-63
2024/01/19 05:15:32;;;;;;;2.08;1.15;;;;;;;;;;5024503;28;42346;-63
2024/01/19 05:18:01;;;;;;;1.23;0.80;;;;;;;;;;5024882;28;40931;-63
2024/01/19 05:20:29;;;;;;;1.40;0.90;;;;;;;;;;5021686;28;42052;-63
2024/01/19 05:22:57;;;;;;;3.30;1.42;;;;;;;;;;5024749;28;42297;-63
2024/01/19 05:25:25;;;;;;;2.83;1.50;;;;;;;;;;5024772;28;42848;-63
2024/01/19 05:27:54;;;;;;;1.70;1.13;;;;;;;;;;5016557;28;40885;-63
2024/01/19 05:30:22;;;;;;;2.25;1.13;;;;;;;;;;5018394;28;42732;-63
2024/01/19 05:32:51;;;;;;;2.90;1.40;;;;;;;;;;5024455;28;41380;-63
2024/01/19 05:35:19;;;;;;;1.35;0.98;;;;;;;;;;5014315;28;41139;-63
2024/01/19 05:37:47;;;;;;;1.17;0.90;;;;;;;;;;5022455;28;41626;-62
2024/01/19 05:40:15;;;;;;;2.22;1.23;;;;;;;;;;5015906;28;40746;-63
2024/01/19 05:42:46;;;;;;;1.95;1.20;;;;;;;;;;5020174;28;41406;-63
2024/01/19 05:45:14;;;;;;;1.88;1.10;;;;;;;;;;5021138;28;41921;-63
2024/01/19 05:47:43;;;;;;;1.88;1.02;;;;;;;;;;5024174;28;40895;-63
2024/01/19 05:50:12;;;;;;;3.40;1.20;;;;;;;;;;5022268;28;40826;-63
2024/01/19 05:52:40;;;;;;;2.42;1.20;;;;;;;;;;5017570;28;41775;-63
2024/01/19 05:55:09;;;;;;;2.65;1.08;;;;;;;;;;5024339;28;40866;-63
2024/01/19 05:57:36;;;;;;;1.83;1.15;;;;;;;;;;5014166;28;40754;-63
2024/01/19 06:00:06;;;;;;;1.33;0.80;;;;;;;;;;5023279;28;41882;-62
2024/01/19 06:02:38;;;;;;;1.65;1.02;;;;;;;;;;5011108;28;42279;-62
2024/01/19 06:05:06;;;;;;;1.33;1.00;;;;;;;;;;5024048;28;43837;-63
2024/01/19 06:07:36;;;;;;;2.33;1.25;;;;;;;;;;5025415;28;42246;-63
2024/01/19 06:10:04;;;;;;;1.40;0.93;;;;;;;;;;5024250;28;42263;-63
2024/01/19 06:12:32;;;;;;;2.13;1.00;;;;;;;;;;5019903;28;42192;-63
2024/01/19 06:15:00;;;;;;;2.53;1.25;;;;;;;;;;5010075;28;40287;-63
2024/01/19 06:17:28;;;;;;;1.25;0.98;;;;;;;;;;5024749;28;41341;-63
2024/01/19 06:19:56;;;;;;;1.95;1.00;;;;;;;;;;5023938;28;41998;-63
2024/01/19 06:22:24;;;;;;;1.65;1.00;;;;;;;;;;5018147;28;42459;-63
2024/01/19 06:24:54;;;;;;;2.53;1.42;;;;;;;;;;5012847;28;42231;-62
2024/01/19 06:27:22;;;;;;;1.42;1.05;;;;;;;;;;5022546;28;41395;-63
2024/01/19 06:29:50;;;;;;;2.60;1.15;;;;;;;;;;5023418;28;41798;-63
2024/01/19 06:32:18;;;;;;;2.30;1.13;;;;;;;;;;5023506;28;42098;-63
2024/01/19 06:34:46;;;;;;;2.88;1.15;;;;;;;;;;5021472;28;41363;-63
2024/01/19 06:37:14;;;;;;;1.30;0.77;;;;;;;;;;5022182;28;41491;-63
2024/01/19 06:39:42;;;;;;;2.13;1.13;;;;;;;;;;5024344;28;40167;-63
2024/01/19 06:42:11;;;;;;;2.13;0.95;;;;;;;;;;5021553;28;41194;-63
2024/01/19 06:44:42;;;;;;;2.95;1.15;;;;;;;;;;5022612;28;43123;-63
2024/01/19 06:47:10;;;;;;;2.42;1.40;;;;;;;;;;5023508;28;42283;-62
2024/01/19 06:49:38;;;;;;;2.65;1.30;;;;;;;;;;5011628;28;41679;-63
2024/01/19 06:52:06;;;;;;;2.58;1.88;;;;;;;;;;5016208;28;43077;-62
2024/01/19 06:54:34;;;;;;;2.35;1.40;;;;;;;;;;5013268;28;41032;-63
2024/01/19 06:57:02;;;;;;;1.92;1.10;;;;;;;;;;5017587;28;41649;-63
2024/01/19 06:59:32;;;;;;;3.38;1.30;;;;;;;;;;5011990;28;41731;-62
2024/01/19 07:02:00;;;;;;;1.40;1.17;;;;;;;;;;5024593;28;40631;-62
2024/01/19 07:04:28;;;;;;;2.33;1.30;;;;;;;;;;5025286;28;41634;-62
2024/01/19 07:06:57;;;;;;;1.85;1.20;;;;;;;;;;5027174;28;42991;-65
2024/01/19 07:09:26;;;;;;;1.35;1.05;;;;;;;;;;5017807;28;41718;-66
2024/01/19 07:11:54;;;;;;;3.58;1.42;;;;;;;;;;5025494;28;42323;-66
2024/01/19 07:14:24;;;;;;;3.60;1.55;;;;;;;;;;5026603;28;41978;-66
2024/01/19 07:16:55;;;;;;;3.33;1.65;;;;;;;;;;5025893;28;41666;-66
2024/01/19 07:19:23;;;;;;;2.10;1.30;;;;;;;;;;5027507;28;43150;-62
2024/01/19 07:21:51;;;;;;;2.35;1.50;;;;;;;;;;5027340;28;41173;-68
2024/01/19 07:24:19;;;;;;;2.80;1.52;;;;;;;;;;5012949;28;41568;-70
2024/01/19 07:26:47;;;;;;;5.47;1.75;;;;;;;;;;5025806;28;41904;-69
2024/01/19 07:29:15;;;;;;;3.78;1.67;;;;;;;;;;5009212;28;41883;-68
2024/01/19 07:31:43;;;;;;;3.47;1.70;;;;;;;;;;5013582;28;41683;-69
2024/01/19 07:34:12;;;;;;;5.43;2.20;;;;;;;;;;5017667;28;41474;-68
2024/01/19 07:36:41;;;;;;;3.88;1.75;;;;;;;;;;5017453;28;41278;-68
2024/01/19 07:39:09;;;;;;;2.50;1.55;;;;;;;;;;5019013;28;41581;-69
2024/01/19 07:41:37;;;;;;;6.55;1.63;;;;;;;;;;5015215;28;41929;-69
2024/01/19 07:44:05;;;;;;;4.00;1.90;;;;;;;;;;5016170;28;40969;-68
2024/01/19 07:46:33;;;;;;;2.85;1.95;;;;;;;;;;5020864;28;41809;-68
2024/01/19 07:49:01;;;;;;;5.43;1.73;;;;;;;;;;5013242;28;40790;-68
2024/01/19 07:51:30;;;;;;;3.75;1.42;;;;;;;;;;5018350;28;41703;-68
2024/01/19 07:53:58;;;;;;;2.53;1.35;;;;;;;;;;5015513;28;41942;-68
2024/01/19 07:56:26;;;;;;;1.75;1.10;;;;;;;;;;5022989;28;40398;-68
2024/01/19 07:58:54;;;;;;;2.78;1.60;;;;;;;;;;5021678;28;42017;-68
2024/01/19 08:01:22;;;;;;;2.65;1.20;;;;;;;;;;5021883;28;42270;-68
2024/01/19 08:03:50;;;;;;;3.63;1.75;;;;;;;;;;5017628;28;42683;-68
2024/01/19 08:06:18;;;;;;;3.70;1.70;;;;;;;;;;5017433;28;43077;-68
2024/01/19 08:08:48;;;;;;;3.13;1.75;;;;;;;;;;5023982;28;42008;-68
2024/01/19 08:11:16;;;;;;;1.67;1.42;;;;;;;;;;5024601;28;41241;-69
2024/01/19 08:13:43;;;;;;;2.95;1.80;;;;;;;;;;5015444;28;40841;-69
2024/01/19 08:16:11;;;;;;;1.73;1.40;;;;;;;;;;5016878;28;41771;-67
2024/01/19 08:18:39;;;;;;;1.98;1.77;;;;;;;;;;5012703;28;42574;-69
2024/01/19 08:21:08;;;;;;;2.17;1.75;;;;;;;;;;5007193;28;40878;-69
2024/01/19 08:23:36;;;;;;;2.13;1.42;;;;;;;;;;5009227;28;41746;-68
2024/01/19 08:26:08;;;;;;;3.28;1.30;;;;;;;;;;5012165;28;43139;-69
2024/01/19 08:28:36;;;;;;;1.77;1.05;;;;;;;;;;5020167;28;40615;-68
2024/01/19 08:31:04;;;;;;;2.22;1.50;;;;;;;;;;5019623;28;41231;-68
2024/01/19 08:33:32;;;;;;;2.80;1.83;;;;;;;;;;5017567;28;42362;-68
2024/01/19 08:36:01;;;;;;;2.53;1.70;;;;;;;;;;5012654;28;41403;-69
2024/01/19 08:38:29;;;;;;;2.40;1.45;;;;;;;;;;5023813;28;43193;-69
2024/01/19 08:40:57;;;;;;;2.72;1.80;;;;;;;;;;5024300;28;41801;-68
2024/01/19 08:43:27;;;;;;;3.45;2.42;;;;;;;;;;5020297;28;42302;-68
2024/01/19 08:45:55;;;;;;;3.72;2.70;;;;;;;;;;5018935;28;42091;-69
2024/01/19 08:48:23;;;;;;;2.72;2.00;;;;;;;;;;5018467;28;42223;-68
2024/01/19 08:50:51;;;;;;;6.88;1.50;;;;;;;;;;5026561;28;41309;-68
2024/01/19 08:53:19;;;;;;;7.88;1.85;;;;;;;;;;5025023;28;43179;-69
2024/01/19 08:55:47;;;;;;;3.10;1.70;;;;;;;;;;5018466;28;39677;-69
2024/01/19 08:58:16;;;;;;;3.92;2.95;;;;;;;;;;5021207;28;43466;-70
2024/01/19 09:00:45;;;;;;;6.20;2.17;;;;;;;;;;5017805;28;41420;-68
2024/01/19 09:03:14;;;;;;;2.42;1.73;;;;;;;;;;5020245;28;41739;-70
2024/01/19 09:05:42;;;;;;;4.28;2.38;;;;;;;;;;5015139;28;42043;-73
2024/01/19 09:08:10;;;;;;;4.63;2.50;;;;;;;;;;5022031;28;41979;-73
2024/01/19 09:10:38;;;;;;;3.78;3.15;;;;;;;;;;5024649;28;40532;-70
2024/01/19 09:13:06;;;;;;;4.00;2.40;;;;;;;;;;5025731;28;42133;-69
2024/01/19 09:15:34;;;;;;;3.40;2.60;;;;;;;;;;5025917;28;42318;-68
2024/01/19 09:18:03;;;;;;;5.45;2.63;;;;;;;;;;5018222;28;41506;-69
2024/01/19 09:20:31;;;;;;;4.35;2.70;;;;;;;;;;5024004;28;40774;-69
2024/01/19 09:23:00;;;;;;;2.30;2.00;;;;;;;;;;5025087;28;41313;-69
2024/01/19 09:25:27;;;;;;;6.40;3.22;;;;;;;;;;5022792;28;41796;-71
2024/01/19 09:27:56;;;;;;;5.40;1.50;;;;;;;;;;5018568;28;40863;-69
2024/01/19 09:30:23;;;;;;;4.65;2.05;;;;;;;;;;5015279;28;41823;-79
2024/01/19 09:32:52;;;;;;;3.80;2.15;;;;;;;;;;5023283;28;42002;-75
2024/01/19 09:35:26;;;;;;;3.55;2.08;;;;;;;;;;5020041;28;41537;-68
2024/01/19 09:37:54;;;;;;;2.42;1.80;;;;;;;;;;5012318;28;42413;-68
2024/01/19 09:40:22;;;;;;;2.97;2.13;;;;;;;;;;5020490;28;32650;-70
2024/01/19 09:42:50;;;;;;;5.18;2.75;;;;;;;;;;5017939;28;41404;-69
2024/01/19 09:45:19;;;;;;;4.68;1.75;;;;;;;;;;5021336;28;41944;-68
2024/01/19 09:47:52;;;;;;;3.63;1.95;;;;;;;;;;5018614;28;40649;-68
2024/01/19 09:50:20;;;;;;;3.40;2.20;;;;;;;;;;5025309;28;42632;-69
2024/01/19 09:52:55;;;;;;;1.80;1.40;;;;;;;;;;5015261;28;42490;-69
2024/01/19 09:55:23;;;;;;;5.35;1.52;;;;;;;;;;5025909;28;41308;-68
2024/01/19 09:57:52;;;;;;;4.68;2.22;;;;;;;;;;5012435;28;40611;-69
2024/01/19 10:00:20;;;;;;;3.83;1.42;;;;;;;;;;5020234;28;42177;-69
2024/01/19 10:02:49;;;;;;;4.28;2.38;;;;;;;;;;5021965;28;42640;-69
2024/01/19 10:05:17;;;;;;;3.80;2.05;;;;;;;;;;5016603;28;43208;-71
2024/01/19 10:07:45;;;;;;;2.58;1.30;;;;;;;;;;5021319;28;40767;-70
2024/01/19 10:10:15;;;;;;;4.53;2.38;;;;;;;;;;5025881;28;41303;-69
2024/01/19 10:12:43;;;;;;;3.53;2.17;;;;;;;;;;5018715;28;41899;-69
2024/01/19 10:15:12;;;;;;;2.15;1.80;;;;;;;;;;5009074;28;41789;-69
2024/01/19 10:17:40;;;;;;;4.72;2.67;;;;;;;;;;5025596;28;42752;-68
2024/01/19 10:20:10;;;;;;;3.22;1.90;;;;;;;;;;5021908;28;41981;-70
2024/01/19 10:22:39;;;;;;;4.70;3.67;;;;;;;;;;5017754;28;41480;-70
2024/01/19 10:25:08;;;;;;;3.22;1.83;;;;;;;;;;5010785;28;42109;-70
2024/01/19 10:27:45;;;;;;;5.05;2.20;;;;;;;;;;5024890;28;40814;-71
2024/01/19 10:30:14;;;;;;;6.00;2.55;;;;;;;;;;5020346;28;41651;-73
2024/01/19 10:32:42;;;;;;;4.82;3.47;;;;;;;;;;5023343;28;42219;-70
2024/01/19 10:35:11;;;;;;;6.00;3.63;;;;;;;;;;5012454;28;42326;-73
2024/01/19 10:37:39;;;;;;;5.40;3.42;;;;;;;;;;5023855;28;42348;-69
2024/01/19 10:40:20;;;;;;;7.28;2.95;;;;;;;;;;5025027;28;42023;-70
2024/01/19 10:42:50;;;;;;;6.82;2.75;;;;;;;;;;5024372;28;42927;-72
2024/01/19 10:45:18;;;;;;;8.27;2.92;;;;;;;;;;5019745;28;42088;-68
2024/01/19 10:47:46;;;;;;;7.13;3.92;;;;;;;;;;5022006;28;40951;-67
2024/01/19 10:50:15;;;;;;;9.30;3.80;;;;;;;;;;5024543;28;42089;-69
2024/01/19 10:52:43;;;;;;;6.90;2.80;;;;;;;;;;5022215;28;43357;-69
2024/01/19 10:55:16;;;;;;;5.53;3.80;;;;;;;;;;5022060;28;42260;-70
2024/01/19 10:57:44;;;;;;;6.00;3.33;;;;;;;;;;5020216;28;41538;-71
2024/01/19 11:00:20;;;;;;;7.15;3.38;;;;;;;;;;5024525;28;41637;-71
2024/01/19 11:02:48;;;;;;;5.72;2.22;;;;;;;;;;5023000;28;41071;-69
2024/01/19 11:05:17;;;;;;;6.65;3.67;;;;;;;;;;5024234;28;41463;-69
2024/01/19 11:07:45;;;;;;;5.22;2.80;;;;;;;;;;5021248;28;43018;-68
2024/01/19 11:10:13;;;;;;;9.82;3.42;;;;;;;;;;5016570;28;42539;-67
2024/01/19 11:12:47;;;;;;;5.32;4.00;;;;;;;;;;5016392;28;41979;-71
2024/01/19 11:15:17;;;;;;;6.40;2.95;;;;;;;;;;5022844;28;41502;-69
2024/01/19 11:17:46;;;;;;;3.85;2.95;;;;;;;;;;5014343;28;42547;-70
2024/01/19 11:20:14;;;;;;;6.18;3.47;;;;;;;;;;5011847;28;42412;-69
2024/01/19 11:22:42;;;;;;;3.92;2.60;;;;;;;;;;5011255;28;41186;-69
2024/01/19 11:25:12;;;;;;;7.18;3.72;;;;;;;;;;5023366;28;41699;-69
2024/01/19 11:27:41;;;;;;;4.10;2.83;;;;;;;;;;5024874;28;43318;-69
2024/01/19 11:30:10;;;;;;;6.10;4.40;;;;;;;;;;5018251;28;41422;-69
2024/01/19 11:32:37;;;;;;;4.13;3.17;;;;;;;;;;5010853;28;42309;-70
2024/01/19 11:35:09;;;;;;;8.50;3.15;;;;;;;;;;5017244;28;41985;-68
2024/01/19 11:37:39;;;;;;;7.32;3.33;;;;;;;;;;5022953;28;41693;-70
2024/01/19 11:40:07;;;;;;;6.55;4.78;;;;;;;;;;5009721;28;43206;-71
2024/01/19 11:42:44;;;;;;;4.13;2.28;;;;;;;;;;5023031;28;41029;-69
2024/01/19 11:45:22;;;;;;;6.88;3.42;;;;;;;;;;5007597;28;41594;-68
2024/01/19 11:47:49;;;;;;;5.90;3.83;;;;;;;;;;5025742;28;42136;-66
2024/01/19 11:50:19;;;;;;;4.28;2.10;;;;;;;;;;5027887;28;41456;-66
2024/01/19 11:52:47;;;;;;;5.72;2.63;;;;;;;;;;5027374;28;40573;-73
2024/01/19 11:55:35;;;;;;;5.20;4.40;;;;;;;;;;5010434;28;41740;-71
2024/01/19 11:58:21;;;;;;;5.32;4.50;;;;;;;;;;5006250;28;42432;-73
2024/01/19 12:00:49;;;;;;;5.15;2.53;;;;;;;;;;5028671;28;42045;-70
2024/01/19 12:03:19;;;;;;;6.05;3.10;;;;;;;;;;5015467;28;40040;-70
2024/01/19 12:05:48;;;;;;;6.57;2.55;;;;;;;;;;5026694;28;42391;-70
2024/01/19 12:08:16;;;;;;;5.47;2.83;;;;;;;;;;5026533;28;41530;-70
2024/01/19 12:10:44;;;;;;;2.95;2.17;;;;;;;;;;5020784;28;40718;-71
2024/01/19 12:13:12;;;;;;;3.53;2.47;;;;;;;;;;5020945;28;41197;-69
2024/01/19 12:15:41;;;;;;;4.53;2.50;;;;;;;;;;5013915;28;40004;-70
2024/01/19 12:18:09;;;;;;;4.47;2.53;;;;;;;;;;5019110;28;41455;-71
2024/01/19 12:20:37;;;;;;;4.45;2.63;;;;;;;;;;5025353;28;41745;-70
2024/01/19 12:23:06;;;;;;;5.78;2.97;;;;;;;;;;5027574;28;41043;-74
2024/01/19 12:25:34;;;;;;;5.75;2.50;;;;;;;;;;5021987;28;41666;-71
2024/01/19 12:28:02;;;;;;;2.97;1.92;;;;;;;;;;5024331;28;42657;-67
2024/01/19 12:30:32;;;;;;;7.57;2.53;;;;;;;;;;5016532;28;42044;-68
2024/01/19 12:33:13;;;;;;;7.20;2.13;;;;;;;;;;5020319;28;42558;-67
2024/01/19 12:35:41;;;;;;;4.50;2.40;;;;;;;;;;5025460;28;41420;-67
2024/01/19 12:38:10;;;;;;;4.97;2.35;;;;;;;;;;5025293;28;42251;-68
2024/01/19 12:40:40;;;;;;;4.00;2.45;;;;;;;;;;5024829;28;41550;-68
2024/01/19 12:43:08;;;;;;;3.50;2.15;;;;;;;;;;5026788;28;41991;-68
2024/01/19 12:45:36;;;;;;;5.82;3.10;;;;;;;;;;5025086;28;42734;-66
2024/01/19 12:48:04;;;;;;;3.88;1.92;;;;;;;;;;5014034;28;41871;-68
2024/01/19 12:50:45;;;;;;;7.82;3.83;;;;;;;;;;5019518;28;42933;-69
2024/01/19 12:53:15;;;;;;;7.57;2.60;;;;;;;;;;5015505;28;41631;-69
2024/01/19 12:55:44;;;;;;;4.85;2.63;;;;;;;;;;5016359;28;42658;-70
2024/01/19 12:58:12;;;;;;;4.45;2.03;;;;;;;;;;5025392;28;41210;-71
2024/01/19 13:00:41;;;;;;;3.45;2.03;;;;;;;;;;5023539;28;43650;-71
2024/01/19 13:03:09;;;;;;;5.22;2.10;;;;;;;;;;5019898;28;41949;-70
2024/01/19 13:05:41;;;;;;;4.63;1.88;;;;;;;;;;5018891;28;42332;-70
2024/01/19 13:08:10;;;;;;;4.32;2.17;;;;;;;;;;5023811;28;43191;-70
2024/01/19 13:10:40;;;;;;;4.57;2.22;;;;;;;;;;5026656;28;42145;-70
2024/01/19 13:13:08;;;;;;;4.03;2.40;;;;;;;;;;5025719;28;41254;-70
2024/01/19 13:15:36;;;;;;;3.35;2.20;;;;;;;;;;5023013;28;42825;-70
2024/01/19 13:18:09;;;;;;;3.97;2.10;;;;;;;;;;5025735;28;41319;-70
2024/01/19 13:20:37;;;;;;;4.05;1.98;;;;;;;;;;5025773;28;41823;-70
2024/01/19 13:23:06;;;;;;;5.28;2.78;;;;;;;;;;5020119;28;40767;-70
2024/01/19 13:25:34;;;;;;;4.85;2.80;;;;;;;;;;5023852;28;41866;-71
2024/01/19 13:28:03;;;;;;;4.32;2.20;;;;;;;;;;5024717;28;42806;-70
2024/01/19 13:30:31;;;;;;;6.57;2.20;;;;;;;;;;5022807;28;41377;-70
2024/01/19 13:33:00;;;;;;;5.05;2.22;;;;;;;;;;5025973;28;42167;-70
2024/01/19 13:35:29;;;;;;;4.65;2.83;;;;;;;;;;5025442;28;42095;-70
2024/01/19 13:37:57;;;;;;;6.35;2.40;;;;;;;;;;5010768;28;40615;-70
2024/01/19 13:40:26;;;;;;;5.95;2.45;;;;;;;;;;5024750;28;40933;-70
2024/01/19 13:42:54;;;;;;;4.53;2.30;;;;;;;;;;5026027;28;42050;-70
2024/01/19 13:45:23;;;;;;;4.57;2.65;;;;;;;;;;5022976;28;42646;-70
2024/01/19 13:47:51;;;;;;;3.38;2.03;;;;;;;;;;5024695;28;41888;-69
2024/01/19 13:50:19;;;;;;;4.10;2.08;;;;;;;;;;5024264;28;40748;-70
2024/01/19 13:52:47;;;;;;;3.58;2.17;;;;;;;;;;5024281;28;41451;-70
2024/01/19 13:55:15;;;;;;;3.53;1.80;;;;;;;;;;5023375;28;41952;-69
2024/01/19 13:57:43;;;;;;;4.93;2.47;;;;;;;;;;5022583;28;41340;-69
2024/01/19 14:00:11;;;;;;;2.67;1.42;;;;;;;;;;5024940;28;42165;-68
2024/01/19 14:02:41;;;;;;;3.08;1.90;;;;;;;;;;5024498;28;41288;-70
2024/01/19 14:05:09;;;;;;;3.80;2.17;;;;;;;;;;5011450;28;41448;-70
2024/01/19 14:07:37;;;;;;;4.45;2.25;;;;;;;;;;5022662;28;41966;-70
2024/01/19 14:10:05;;;;;;;7.95;2.03;;;;;;;;;;5020811;28;41697;-69
2024/01/19 14:12:33;;;;;;;5.85;1.92;;;;;;;;;;5021343;28;41276;-75
2024/01/19 14:15:01;;;;;;;2.83;1.70;;;;;;;;;;5023626;28;42094;-74
2024/01/19 14:17:30;;;;;;;3.17;1.73;;;;;;;;;;5021939;28;41857;-76
2024/01/19 14:19:59;;;;;;;4.13;1.65;;;;;;;;;;5018996;28;41239;-75
2024/01/19 14:22:27;;;;;;;3.00;1.70;;;;;;;;;;5026446;28;41835;-76
2024/01/19 14:24:55;;;;;;;4.72;2.30;;;;;;;;;;5023972;28;41833;-74
2024/01/19 14:27:28;;;;;;;12.60;2.10;;;;;;;;;;5025602;28;42689;-76
2024/01/19 14:29:56;;;;;;;3.92;2.03;;;;;;;;;;5023823;28;40717;-75
2024/01/19 14:32:24;;;;;;;3.53;1.95;;;;;;;;;;5022296;28;41854;-75
2024/01/19 14:34:52;;;;;;;3.90;1.92;;;;;;;;;;5007942;28;41966;-74
2024/01/19 14:37:26;;;;;;;4.80;1.85;;;;;;;;;;5022086;28;41558;-76
2024/01/19 14:39:54;;;;;;;9.10;2.20;;;;;;;;;;5025358;28;42354;-79
2024/01/19 14:42:22;;;;;;;6.60;2.40;;;;;;;;;;5024114;28;43058;-77
2024/01/19 14:44:50;;;;;;;8.88;3.08;;;;;;;;;;5020052;28;42308;-69
2024/01/19 14:47:18;;;;;;;5.60;2.90;;;;;;;;;;5019124;28;41649;-68
2024/01/19 14:49:50;;;;;;;7.63;3.00;;;;;;;;;;5020601;28;41306;-69
2024/01/19 14:52:19;;;;;;;4.78;3.30;;;;;;;;;;5023886;28;41236;-68
2024/01/19 14:54:50;;;;;;;10.13;3.60;;;;;;;;;;5020936;28;42832;-77